Latest Weather Observations for Oodnadatta

IDS60801

Issued at 11:01 am CST Monday 23 July 2018 (issued every 10 minutes, with the page automatically refreshed every 10 minutes)

About weather observations | Map of weather stations | Latest weather observations for SA | Other Formats
Station Details ID: 017043 Name: OODNADATTA AIRPORT Lat: -27.56 Lon: 135.45 Height: 116.5 m
Data from the previous 72 hours. | See also: Recent months at Oodnadatta
Date/Time
CST
Temp
°C
App
Temp
°C
Dew
Point
°C
Rel
Hum
%
Delta-T
°C
Wind Press
QNH
hPa
Press
MSL
hPa
Rain since
9am
mm
Dir  Spd
km/h
Gust
km/h
Spd
kts
Gust
kts
23/11:00am 23.3 14.4 -2.3 18 11.2 WNW 35 48 19 26 1012.9 1012.9 0.0
23/10:30am 22.8 14.9 -1.3 20 10.7 WNW 30 35 16 19 1012.9 1012.9 0.0
23/10:00am 20.6 13.6 -0.7 24 9.4 NW 26 35 14 19 1012.9 1012.9 0.0
23/09:30am 20.0 12.5 -1.2 24 9.2 NNW 28 33 15 18 1012.2 1012.2 0.0
23/09:00am 19.7 13.0 -0.9 25 9.0 NNW 24 33 13 18 1012.0 1012.0 0.0
23/08:30am 18.5 12.6 -0.8 27 8.3 NNW 20 26 11 14 1011.9 1011.9 0.0
23/08:00am 17.4 11.6 -1.3 28 7.9 NNW 19 24 10 13 1011.8 1011.8 0.0
23/07:30am 15.9 10.5 -1.6 30 7.3 NNW 17 20 9 11 1011.6 1011.6 0.0
23/07:00am 16.5 9.8 -1.1 30 7.4 N 24 30 13 16 1010.9 1010.9 0.0
23/06:30am 15.6 9.2 -1.9 30 7.2 N 22 32 12 17 1010.1 1010.2 0.0
23/06:00am 14.4 9.7 -2.1 32 6.7 NNW 13 17 7 9 1011.0 1011.0 0.0
23/05:30am 15.1 9.2 -2.3 30 7.0 NNW 19 24 10 13 1010.9 1010.9 0.0
23/05:00am 16.4 8.0 -2.1 28 7.6 N 32 37 17 20 1010.2 1010.3 0.0
23/04:30am 16.1 7.7 -2.4 28 7.6 N 32 41 17 22 1010.3 1010.4 0.0
23/04:00am 15.8 8.1 -2.6 28 7.4 N 28 35 15 19 1010.8 1010.8 0.0
23/03:30am 15.8 9.3 -2.6 28 7.5 N 22 30 12 16 1011.5 1011.5 0.0
23/03:00am 15.7 9.5 -3.2 27 7.5 N 20 24 11 13 1011.9 1011.9 0.0
23/02:30am 15.7 9.7 -3.2 27 7.5 NNW 19 24 10 13 1012.3 1012.3 0.0
23/02:00am 16.9 11.3 -3.2 25 8.1 N 17 24 9 13 1012.2 1012.2 0.0
23/01:30am 16.9 10.3 -3.2 25 8.1 N 22 30 12 16 1012.0 1012.0 0.0
23/01:00am 17.2 9.5 -3.0 25 8.2 N 28 35 15 19 1012.0 1012.0 0.0
23/12:30am 16.9 9.2 -3.2 25 8.1 NNE 28 35 15 19 1012.1 1012.1 0.0
23/12:00am 17.4 9.3 -3.4 24 8.4 NNE 30 35 16 19 1012.2 1012.2 0.0
 
Date/Time
CST
Temp
°C
App
Temp
°C
Dew
Point
°C
Rel
Hum
%
Delta-T
°C
Wind Press
QNH
hPa
Press
MSL
hPa
Rain since
9am
mm
Dir  Spd
km/h
Gust
km/h
Spd
kts
Gust
kts
22/11:30pm 17.8 10.0 -3.6 23 8.7 NNE 28 37 15 20 1012.4 1012.4 0.0
22/11:00pm 17.7 10.0 -3.1 24 8.5 NNE 28 35 15 19 1012.6 1012.6 0.0
22/10:30pm 18.6 10.5 -2.9 23 8.9 NNE 30 39 16 21 1012.8 1012.8 0.0
22/10:00pm 19.2 11.1 -3.0 22 9.2 NNE 30 37 16 20 1012.7 1012.7 0.0
22/09:30pm 19.8 11.3 -3.1 21 9.5 NNE 32 43 17 23 1012.7 1012.7 0.0
22/09:00pm 20.0 11.9 -3.0 21 9.6 NNE 30 39 16 21 1012.7 1012.7 0.0
22/08:30pm 20.6 12.1 -3.1 20 10.0 NNE 32 39 17 21 1012.5 1012.5 0.0
22/08:00pm 20.7 13.0 -3.0 20 10.0 NNE 28 35 15 19 1012.5 1012.5 0.0
22/07:30pm 21.0 14.4 -3.5 19 10.2 NNE 22 30 12 16 1012.4 1012.4 0.0
22/07:00pm 21.9 14.9 -3.5 18 10.7 NNE 24 33 13 18 1012.2 1012.2 0.0
22/06:30pm 22.8 16.3 -2.7 18 11.0 NNE 22 30 12 16 1011.9 1011.9 0.0
22/06:00pm 23.7 16.8 -2.8 17 11.5 N 24 32 13 17 1011.8 1011.8 0.0
22/05:30pm 24.5 16.8 -2.9 16 12.0 N 28 37 15 20 1011.7 1011.7 0.0
22/05:00pm 25.1 17.1 -2.5 16 12.2 N 30 39 16 21 1011.7 1011.7 0.0
22/04:30pm 25.6 17.5 -2.9 15 12.6 N 30 41 16 22 1011.7 1011.7 0.0
22/04:00pm 25.5 16.9 -3.9 14 12.7 N 32 39 17 21 1011.8 1011.8 0.0
22/03:30pm 25.6 17.8 -3.8 14 12.7 N 28 39 15 21 1012.3 1012.3 0.0
22/03:00pm 25.6 18.2 -3.8 14 12.7 N 26 37 14 20 1012.9 1012.9 0.0
22/02:30pm 24.8 16.9 -4.5 14 12.4 N 28 39 15 21 1013.5 1013.5 0.0
22/02:00pm 24.0 16.1 -5.1 14 12.1 N 28 37 15 20 1014.1 1014.1 0.0
22/01:30pm 23.0 14.2 -4.1 16 11.4 N 33 39 18 21 1014.8 1014.8 0.0
22/01:00pm 22.8 13.5 -5.2 15 11.5 N 35 46 19 25 1015.5 1015.5 0.0
22/12:30pm 21.5 12.3 -4.5 17 10.7 N 35 46 19 25 1015.8 1015.8 0.0
22/12:00pm 21.0 11.8 -4.9 17 10.5 N 35 43 19 23 1016.4 1016.4 0.0
22/11:30am 19.8 9.8 -5.2 18 10.0 N 39 48 21 26 1016.8 1016.8 0.0
22/11:00am 18.8 9.1 -5.3 19 9.5 N 37 46 20 25 1017.4 1017.5 0.0
22/10:30am 17.0 8.1 -5.5 21 8.6 N 33 48 18 26 1017.9 1018.0 0.0
22/10:00am 15.3 6.0 -5.7 23 7.9 N 35 46 19 25 1018.3 1018.4 0.0
22/09:30am 14.0 5.2 -5.7 25 7.3 N 32 44 17 24 1018.4 1018.5 0.0
22/09:00am 12.6 4.9 -6.4 26 6.8 N 26 39 14 21 1019.0 1019.1 0.0
22/08:30am 11.1 4.6 -5.8 30 6.0 N 20 26 11 14 1018.9 1019.0 0.0
22/08:00am 9.6 3.1 -5.9 33 5.4 N 20 26 11 14 1018.9 1019.0 0.0
22/07:30am 9.4 2.9 -6.0 33 5.3 NNE 20 26 11 14 1018.9 1019.0 0.0
22/07:00am 9.5 2.3 -5.6 34 5.3 N 24 30 13 16 1018.7 1018.8 0.0
22/06:30am 9.3 2.1 -5.7 34 5.2 NNE 24 30 13 16 1018.7 1018.8 0.0
22/06:00am 9.3 2.1 -5.7 34 5.2 NNE 24 30 13 16 1018.9 1019.0 0.0
22/05:30am 8.7 3.2 -5.2 37 4.9 N 15 24 8 13 1019.0 1019.1 0.0
22/05:00am 8.3 2.8 -5.5 37 4.8 N 15 19 8 10 1019.6 1019.6 0.0
22/04:30am 8.2 2.3 -5.6 37 4.8 NNW 17 19 9 10 1019.7 1019.7 0.0
22/04:00am 7.1 2.3 -6.2 38 4.5 N 11 15 6 8 1019.3 1019.4 0.0
22/03:30am 8.4 3.2 -5.8 36 4.9 N 13 17 7 9 1019.6 1019.6 0.0
22/03:00am 9.1 2.8 -5.9 34 5.2 N 19 24 10 13 1019.9 1019.9 0.0
22/02:30am 10.3 4.4 -5.2 33 5.5 N 17 24 9 13 1019.9 1019.9 0.0
22/02:00am 10.7 4.8 -5.3 32 5.8 NNE 17 22 9 12 1019.8 1019.8 0.0
22/01:30am 10.8 4.6 -4.8 33 5.7 NNE 19 24 10 13 1020.2 1020.2 0.0
22/01:00am 10.6 4.8 -4.6 34 5.6 NNE 17 22 9 12 1020.1 1020.1 0.0
22/12:30am 10.5 4.3 -4.7 34 5.5 NE 19 24 10 13 1020.1 1020.1 0.0
22/12:00am 10.8 5.0 -4.8 33 5.7 NNE 17 20 9 11 1020.1 1020.1 0.0
 
Date/Time
CST
Temp
°C
App
Temp
°C
Dew
Point
°C
Rel
Hum
%
Delta-T
°C
Wind Press
QNH
hPa
Press
MSL
hPa
Rain since
9am
mm
Dir  Spd
km/h
Gust
km/h
Spd
kts
Gust
kts
21/11:30pm 11.1 4.9 -4.5 33 5.7 NNE 19 20 10 11 1020.2 1020.2 0.0
21/11:00pm 10.7 5.3 -4.9 33 5.7 NE 15 20 8 11 1020.0 1020.0 0.0
21/10:30pm 10.6 5.5 -5.0 33 5.6 NE 13 17 7 9 1019.8 1019.8 0.0
21/10:00pm 10.9 5.4 -5.1 32 5.8 NE 15 17 8 9 1019.8 1019.8 0.0
21/09:30pm 11.4 5.9 -5.1 31 6.0 NE 15 17 8 9 1019.8 1019.8 0.0
21/09:00pm 11.9 5.7 -5.1 30 6.2 NE 19 20 10 11 1019.8 1019.8 0.0
21/08:30pm 12.7 6.3 -4.9 29 6.5 NE 20 22 11 12 1019.8 1019.8 0.0
21/08:00pm 12.9 7.1 -4.7 29 6.6 NNE 17 19 9 10 1019.9 1019.9 0.0
21/07:30pm 13.5 8.1 -4.2 29 6.7 NNE 15 17 8 9 1019.8 1019.8 0.0
21/07:00pm 14.4 8.7 -3.9 28 7.1 NE 17 19 9 10 1019.5 1019.5 0.0
21/06:30pm 15.2 9.9 -3.6 27 7.4 NE 15 19 8 10 1019.2 1019.3 0.0
21/06:00pm 16.9 11.6 -3.2 25 8.1 NNE 15 19 8 10 1019.1 1019.2 0.0
21/05:30pm 18.0 12.4 -2.8 24 8.5 NNE 17 20 9 11 1019.1 1019.2 0.0
21/05:00pm 18.7 13.5 -2.8 23 8.9 N 15 20 8 11 1019.0 1019.1 0.0
21/04:30pm 18.9 13.7 -2.7 23 9.0 NNE 15 22 8 12 1018.9 1019.0 0.0
21/04:00pm 18.8 13.3 -2.2 24 8.8 NNE 17 26 9 14 1018.9 1019.0 0.0
21/03:30pm 19.4 14.0 -1.7 24 9.0 NNE 17 28 9 15 1019.2 1019.3 0.0
21/03:00pm 18.9 13.5 -1.5 25 8.7 N 17 24 9 13 1019.6 1019.6 0.0
21/02:30pm 18.4 12.6 -1.4 26 8.4 N 19 26 10 14 1020.0 1020.0 0.0
21/02:00pm 18.2 12.3 -1.1 27 8.3 N 20 30 11 16 1020.4 1020.4 0.0
21/01:30pm 18.3 12.4 -1.0 27 8.2 N 20 28 11 15 1021.0 1021.0 0.0
21/01:00pm 17.9 11.9 -1.3 27 8.2 N 20 33 11 18 1021.9 1021.9 0.0
21/12:30pm 17.1 10.3 -1.5 28 7.8 N 24 30 13 16 1022.6 1022.6 0.0
21/12:00pm 16.7 9.9 -1.9 28 7.7 N 24 35 13 19 1023.0 1023.0 0.0
21/11:30am 16.3 8.8 -1.7 29 7.4 N 28 35 15 19 1023.6 1023.6 0.0
21/11:00am 15.6 7.7 -1.9 30 7.2 N 30 37 16 20 1024.1 1024.1 0.0
21/10:30am 14.4 6.5 -1.6 33 6.5 NNE 30 37 16 20 1024.3 1024.4 0.0
21/10:00am 13.3 6.1 -2.2 34 6.2 NNE 26 33 14 18 1024.8 1024.9 0.0
21/09:30am 11.8 4.3 -1.7 39 5.3 N 28 37 15 20 1024.7 1024.8 0.0
21/09:00am 10.5 4.7 -1.5 43 4.7 NNE 19 24 10 13 1024.7 1024.8 0.0
21/08:30am 8.3 2.8 -2.0 48 3.9 N 17 20 9 11 1024.5 1024.6 0.0
21/08:00am 6.7 1.9 -2.2 53 3.3 N 13 19 7 10 1024.4 1024.5 0.0
21/07:30am 5.4 -0.2 -2.9 55 2.9 N 17 19 9 10 1024.5 1024.6 0.0
21/07:00am 4.5 0.4 -3.3 57 2.7 N 9 13 5 7 1024.3 1024.4 0.0
21/06:30am 5.3 1.2 -2.8 56 2.9 NNE 9 13 5 7 1024.0 1024.0 0.0
21/06:00am 4.1 -1.2 -3.6 57 2.6 NE 15 15 8 8 1023.8 1023.8 0.0
21/05:30am 4.7 -1.0 -3.6 55 2.9 NNE 17 17 9 9 1023.6 1023.6 0.0
21/05:00am 5.7 0.5 -3.1 53 3.1 NNE 15 17 8 9 1023.4 1023.4 0.0
21/04:30am 5.3 -0.4 -3.5 53 3.1 NE 17 20 9 11 1023.2 1023.2 0.0
21/04:00am 5.1 -0.6 -3.7 53 3.1 NE 17 19 9 10 1023.1 1023.1 0.0
21/03:30am 2.4 -2.1 -7.2 49 3.1 ENE 9 11 5 6 1023.1 1023.1 0.0
21/03:00am 3.5 -1.0 -7.3 45 3.3 NW 9 11 5 6 1023.4 1023.4 0.0
21/02:30am 3.4 -0.8 -7.4 45 3.3 NW 7 9 4 5 1023.5 1023.5 0.0
21/02:00am 3.0 -0.6 -7.7 45 3.5 NW 4 9 2 5 1023.8 1023.8 0.0
21/01:30am 4.5 -0.3 -5.8 47 3.4 NW 11 13 6 7 1023.9 1023.9 0.0
21/01:00am 4.2 -1.0 -6.1 47 3.3 N 13 15 7 8 1024.1 1024.1 0.0
21/12:30am 5.1 0.4 -5.3 47 3.5 ENE 11 13 6 7 1024.5 1024.6 0.0
21/12:00am 5.8 1.1 -5.2 45 3.7 ENE 11 13 6 7 1024.5 1024.6 0.0
 
Date/Time
CST
Temp
°C
App
Temp
°C
Dew
Point
°C
Rel
Hum
%
Delta-T
°C
Wind Press
QNH
hPa
Press
MSL
hPa
Rain since
9am
mm
Dir  Spd
km/h
Gust
km/h
Spd
kts
Gust
kts
20/11:30pm 6.7 2.4 -4.7 44 3.9 ENE 9 13 5 7 1024.4 1024.5 0.0
20/11:00pm 7.3 4.8 -4.4 43 4.1 CALM 0 0 0 0 1024.4 1024.5 0.0
20/10:30pm 7.3 4.8 -4.4 43 4.1 CALM 0 0 0 0 1024.5 1024.6 0.0
20/10:00pm 8.3 5.7 -5.2 38 4.7 CALM 0 0 0 0 1024.3 1024.4 0.0
20/09:30pm 9.1 4.9 -4.1 39 4.8 ENE 9 9 5 5 1023.9 1023.9 0.0
20/09:00pm 9.9 5.7 -4.1 37 5.1 ENE 9 11 5 6 1024.1 1024.1 0.0
20/08:30pm 12.0 9.7 -2.2 37 5.5 CALM 0 0 0 0 1024.2 1024.2 0.0
20/08:00pm 12.0 8.4 -3.4 34 5.9 ENE 6 6 3 3 1024.1 1024.1 0.0
20/07:30pm 12.9 9.4 -3.0 33 6.2 ENE 6 7 3 4 1023.8 1023.8 0.0
20/07:00pm 13.6 10.9 -2.8 32 6.5 ENE 2 7 1 4 1023.4 1023.4 0.0
20/06:30pm 13.6 9.5 -2.8 32 6.4 ENE 9 9 5 5 1023.2 1023.2 0.0
20/06:00pm 15.1 12.5 -1.9 31 6.9 ENE 2 7 1 4 1023.0 1023.0 0.0
20/05:30pm 16.2 14.0 -1.8 29 7.4 CALM 0 0 0 0 1023.0 1023.0 0.0
20/05:00pm 16.3 12.8 -1.7 29 7.5 E 7 11 4 6 1022.8 1022.8 0.0
20/04:30pm 16.4 12.8 -2.1 28 7.6 ESE 7 11 4 6 1022.7 1022.7 0.0
20/04:00pm 16.4 12.5 -1.7 29 7.5 ESE 9 15 5 8 1022.8 1022.8 0.0
20/03:30pm 16.1 12.7 -1.9 29 7.4 E 6 13 3 7 1022.9 1022.9 0.0
20/03:00pm 16.1 12.2 -1.5 30 7.3 E 9 15 5 8 1023.2 1023.2 0.0
20/02:30pm 15.8 11.9 -1.7 30 7.2 SSW 9 17 5 9 1023.4 1023.4 0.0
20/02:00pm 15.8 11.1 -1.7 30 7.2 S 13 24 7 13 1023.6 1023.6 0.0
20/01:30pm 15.2 11.2 -2.2 30 7.0 WSW 9 13 5 7 1024.1 1024.1 0.0
20/01:00pm 14.9 11.9 -1.6 32 6.8 E 4 7 2 4 1024.3 1024.4 0.0
20/12:30pm 14.7 11.1 -2.2 31 6.8 ESE 7 17 4 9 1024.8 1024.9 0.0
20/12:00pm 14.2 9.7 -0.6 36 6.1 ESE 13 24 7 13 1025.4 1025.5 0.0
20/11:30am 14.0 10.1 1.0 41 5.6 SSE 11 15 6 8 1025.7 1025.8 0.0

Other Formats:

Comma delimited format used in spreadsheet applications
http://www.bom.gov.au/fwo/IDS60801/IDS60801.94476.axf

JavaScript Object Notation format (JSON) in row-major order
http://www.bom.gov.au/fwo/IDS60801/IDS60801.94476.json